Time;durP1;ratioP1;P1;durP2;ratioP2;P2;SDS_P1;SDS_P2;PMS_P1;PMS_P2;Temp;Humidity;BMP_temperature;BMP_pressure;BME280_temperature;BME280_humidity;BME280_pressure;Samples;Min_cycle;Max_cycle;Signal;HPM_P1;HPM_P2
2021/05/06 00:01:13;;;;;;;61.55;56.47;;;6.70;99.90;;;;;;5046310;28;20251;-81
2021/05/06 00:31:58;;;;;;;25.85;24.65;;;6.40;99.90;;;;;;5097974;28;20224;-84
2021/05/06 00:34:25;;;;;;;10.07;9.05;;;6.40;99.90;;;;;;5110082;28;20339;-83
2021/05/06 00:36:52;;;;;;;16.60;15.38;;;;;;;;;;5113576;28;20197;-83
2021/05/06 00:39:22;;;;;;;8.45;7.68;;;6.40;99.90;;;;;;5112875;28;20202;-83
2021/05/06 00:42:02;;;;;;;18.85;17.33;;;;;;;;;;5109350;28;20247;-83
2021/05/06 00:45:12;;;;;;;16.25;15.43;;;6.40;99.90;;;;;;5111595;28;20645;-83
2021/05/06 00:59:20;;;;;;;9.95;9.25;;;6.30;99.90;;;;;;5106426;28;20247;-83
2021/05/06 01:04:37;;;;;;;33.13;31.33;;;6.20;99.90;;;;;;5113721;28;20180;-81
2021/05/06 01:07:20;;;;;;;11.20;10.60;;;6.30;99.90;;;;;;5115741;28;20192;-81
2021/05/06 01:09:58;;;;;;;15.98;14.88;;;6.20;99.90;;;;;;5115372;28;20190;-81
2021/05/06 01:12:24;;;;;;;68.40;62.35;;;6.20;99.90;;;;;;5109200;28;20233;-83
2021/05/06 01:14:51;;;;;;;7.82;4.47;;;;;;;;;;5106416;28;20218;-82
2021/05/06 01:17:17;;;;;;;14.73;8.75;;;6.10;99.90;;;;;;5103200;28;20209;-83
2021/05/06 01:19:43;;;;;;;33.00;30.67;;;6.10;99.90;;;;;;5105097;28;20201;-82
2021/05/06 01:22:11;;;;;;;25.38;23.95;;;;;;;;;;5115553;28;20233;-80
2021/05/06 01:24:37;;;;;;;16.70;15.52;;;6.10;99.90;;;;;;5111096;28;20186;-82
2021/05/06 01:27:04;;;;;;;39.92;37.47;;;6.10;99.90;;;;;;5107909;28;20213;-82
2021/05/06 01:29:34;;;;;;;40.42;37.67;;;;;;;;;;5113555;28;20284;-83
2021/05/06 01:32:11;;;;;;;50.50;46.50;;;6.00;99.90;;;;;;5119823;28;20312;-83
2021/05/06 01:34:38;;;;;;;53.97;50.28;;;5.90;99.90;;;;;;5119458;28;20205;-81
2021/05/06 01:37:09;;;;;;;43.65;40.85;;;6.00;99.90;;;;;;5115506;28;20216;-83
2021/05/06 01:39:53;;;;;;;54.08;50.20;;;5.90;99.90;;;;;;5119391;28;20182;-82
2021/05/06 01:42:23;;;;;;;48.60;45.00;;;5.90;99.90;;;;;;5119359;28;20221;-83
2021/05/06 01:45:27;;;;;;;41.60;38.80;;;5.90;99.90;;;;;;5114425;28;20213;-81
2021/05/06 01:47:56;;;;;;;38.05;35.63;;;5.90;99.90;;;;;;5116424;28;20199;-83
2021/05/06 01:50:35;;;;;;;31.40;29.70;;;5.90;99.90;;;;;;5115991;28;20228;-82
2021/05/06 01:58:38;;;;;;;78.93;71.18;;;5.90;99.90;;;;;;5100771;28;20572;-83
2021/05/06 02:01:06;;;;;;;65.50;59.53;;;5.90;99.90;;;;;;5100608;28;20350;-83
2021/05/06 02:03:33;;;;;;;28.10;26.45;;;5.80;99.90;;;;;;5100504;28;20735;-83
2021/05/06 02:05:59;;;;;;;28.35;26.70;;;5.80;99.90;;;;;;5100246;28;20209;-83
2021/05/06 02:08:25;;;;;;;19.90;18.70;;;5.80;99.90;;;;;;5101057;28;20202;-84
2021/05/06 02:10:56;;;;;;;72.50;65.97;;;5.90;99.90;;;;;;5104198;28;20330;-83
2021/05/06 02:13:22;;;;;;;72.70;65.82;;;5.80;99.90;;;;;;5101006;28;20557;-83
2021/05/06 02:15:52;;;;;;;73.20;66.50;;;5.80;99.90;;;;;;5100471;28;20202;-83
2021/05/06 02:18:19;;;;;;;72.18;65.22;;;;;;;;;;5100233;28;20201;-83
2021/05/06 02:20:46;;;;;;;72.55;65.85;;;5.80;99.90;;;;;;5099861;28;20206;-81
2021/05/06 02:23:12;;;;;;;71.13;63.97;;;5.70;99.90;;;;;;5099743;28;20228;-83
2021/05/06 02:25:39;;;;;;;72.75;66.05;;;5.70;99.90;;;;;;5100128;28;20205;-83
2021/05/06 02:28:06;;;;;;;78.47;70.85;;;5.70;99.90;;;;;;5108911;28;20198;-81
2021/05/06 02:30:32;;;;;;;71.15;64.43;;;5.70;99.90;;;;;;5100216;28;20220;-81
2021/05/06 02:32:58;;;;;;;71.63;64.80;;;5.90;99.90;;;;;;5116806;28;20198;-81
2021/05/06 02:35:24;;;;;;;78.28;70.97;;;5.70;99.90;;;;;;5109309;28;20239;-84
2021/05/06 02:37:51;;;;;;;102.35;81.40;;;5.80;99.90;;;;;;5101501;28;20208;-84
2021/05/06 02:40:17;;;;;;;73.25;66.60;;;5.70;99.90;;;;;;5101672;28;20209;-83
2021/05/06 02:42:43;;;;;;;78.78;71.03;;;5.70;99.90;;;;;;5106350;28;20226;-83
2021/05/06 02:45:11;;;;;;;82.15;73.75;;;5.70;99.90;;;;;;5107563;28;20198;-83
2021/05/06 02:47:37;;;;;;;78.45;71.13;;;5.70;99.90;;;;;;5110876;28;20212;-83
2021/05/06 02:50:08;;;;;;;73.10;66.45;;;5.70;99.90;;;;;;5115799;28;20220;-83
2021/05/06 02:52:36;;;;;;;75.50;67.90;;;5.70;99.90;;;;;;5117278;28;20206;-84
2021/05/06 02:55:07;;;;;;;73.70;66.80;;;5.80;99.90;;;;;;5117934;28;20239;-85
2021/05/06 02:57:40;;;;;;;68.95;62.53;;;5.70;99.90;;;;;;5113489;28;20215;-84
2021/05/06 03:02:55;;;;;;;72.57;65.93;;;5.70;99.90;;;;;;5101909;28;20224;-83
2021/05/06 03:05:25;;;;;;;76.60;69.13;;;5.60;99.90;;;;;;5100496;28;20206;-83
2021/05/06 03:07:59;;;;;;;77.53;69.28;;;5.60;99.90;;;;;;5102327;28;20186;-82
2021/05/06 03:22:38;;;;;;;92.35;82.43;;;5.50;99.90;;;;;;5116051;28;20254;-83
2021/05/06 03:24:16;;;;;;;83.75;74.32;;;5.50;99.90;;;;;;5110259;28;20206;-83
2021/05/06 03:26:42;;;;;;;88.95;78.97;;;5.50;99.90;;;;;;5114009;28;20783;-83
2021/05/06 03:29:11;;;;;;;87.30;82.20;;;5.40;99.90;;;;;;5104259;28;20530;-83
2021/05/06 03:31:51;;;;;;;100.95;92.07;;;5.60;99.90;;;;;;5107071;28;20463;-84
2021/05/06 03:42:30;;;;;;;58.83;55.47;;;5.20;99.90;;;;;;5103530;28;20469;-83
2021/05/06 03:45:25;;;;;;;63.50;58.92;;;5.00;99.90;;;;;;5110538;28;20705;-83
2021/05/06 03:48:24;;;;;;;98.05;83.20;;;5.20;99.90;;;;;;5104288;28;20186;-83
2021/05/06 04:13:20;;;;;;;13.45;12.38;;;5.00;99.90;;;;;;5104341;28;20710;-84
2021/05/06 04:18:33;;;;;;;17.27;16.33;;;5.00;99.90;;;;;;5102818;28;20694;-83
2021/05/06 04:26:35;;;;;;;49.40;45.70;;;5.00;99.90;;;;;;5105946;28;20829;-83
2021/05/06 04:37:07;;;;;;;26.02;23.80;;;;;;;;;;5102269;28;20701;-83
2021/05/06 04:39:42;;;;;;;35.40;33.40;;;5.20;99.90;;;;;;5102715;28;20258;-83
2021/05/06 04:42:34;;;;;;;120.97;110.53;;;5.30;99.90;;;;;;5101778;28;20923;-83
2021/05/06 04:53:32;;;;;;;176.60;90.07;;;5.40;99.90;;;;;;5105456;28;20270;-83
2021/05/06 04:56:06;;;;;;;179.25;90.18;;;5.60;99.90;;;;;;5103325;28;20215;-82
2021/05/06 04:59:00;;;;;;;164.95;89.00;;;5.60;99.90;;;;;;5103697;28;20649;-84
2021/05/06 05:03:58;;;;;;;216.35;97.63;;;5.80;99.90;;;;;;5101177;28;20271;-82
2021/05/06 05:06:26;;;;;;;317.65;94.90;;;5.70;99.90;;;;;;5103956;28;20209;-83
2021/05/06 05:08:58;;;;;;;229.95;93.60;;;5.60;99.90;;;;;;5103217;28;20198;-83
2021/05/06 05:11:36;;;;;;;225.75;94.82;;;5.80;99.90;;;;;;5103300;28;20663;-83
2021/05/06 05:14:30;;;;;;;230.32;96.53;;;5.80;99.90;;;;;;5102344;28;20209;-84
2021/05/06 05:19:56;;;;;;;141.93;82.43;;;6.00;99.90;;;;;;5103021;28;20176;-83
2021/05/06 05:25:08;;;;;;;157.82;93.28;;;6.20;99.90;;;;;;5106513;28;20181;-82
2021/05/06 05:27:35;;;;;;;159.45;94.40;;;6.50;99.90;;;;;;5107655;28;20198;-82
2021/05/06 05:30:01;;;;;;;165.10;93.75;;;6.50;99.90;;;;;;5114619;28;20227;-82
2021/05/06 05:32:28;;;;;;;246.30;103.70;;;6.50;99.90;;;;;;5109054;28;20225;-82
2021/05/06 05:34:58;;;;;;;264.27;109.82;;;6.60;99.90;;;;;;5104069;28;20213;-82
2021/05/06 05:37:26;;;;;;;246.93;107.65;;;6.70;99.90;;;;;;5103551;28;20282;-82
2021/05/06 05:40:04;;;;;;;187.88;100.57;;;6.60;99.90;;;;;;5104048;28;20201;-83
2021/05/06 05:42:35;;;;;;;198.13;98.78;;;6.90;99.90;;;;;;5103364;28;20727;-83
2021/05/06 05:56:05;;;;;;;304.80;118.65;;;7.20;99.90;;;;;;5102567;28;20303;-82
2021/05/06 05:58:31;;;;;;;275.50;115.15;;;7.30;99.90;;;;;;5106001;28;20206;-80
2021/05/06 06:01:01;;;;;;;124.70;110.93;;;7.60;99.90;;;;;;5108817;28;20206;-82
2021/05/06 06:03:27;;;;;;;113.93;102.32;;;7.50;99.90;;;;;;5101998;28;20229;-82
2021/05/06 06:05:53;;;;;;;116.00;103.55;;;7.60;99.90;;;;;;5102456;28;20264;-82
2021/05/06 06:08:23;;;;;;;92.15;84.35;;;7.40;99.90;;;;;;5101289;28;20227;-82
2021/05/06 06:10:49;;;;;;;108.07;96.88;;;7.50;99.90;;;;;;5100924;28;20212;-82
2021/05/06 06:13:15;;;;;;;81.20;74.82;;;7.50;99.90;;;;;;5100986;28;20221;-83
2021/05/06 06:15:54;;;;;;;88.18;81.07;;;7.50;99.90;;;;;;5101837;28;20197;-83
2021/05/06 06:18:25;;;;;;;113.65;101.78;;;7.70;99.90;;;;;;5101166;28;20235;-82
2021/05/06 06:21:00;;;;;;;143.88;111.03;;;7.90;99.90;;;;;;5100650;28;20304;-82
2021/05/06 06:23:27;;;;;;;137.98;112.97;;;7.80;99.90;;;;;;5101252;28;20224;-82
2021/05/06 06:25:53;;;;;;;159.70;115.07;;;8.70;99.90;;;;;;5109417;28;20563;-82
2021/05/06 06:28:19;;;;;;;158.55;117.50;;;8.00;99.90;;;;;;5111883;28;20206;-82
2021/05/06 06:30:46;;;;;;;132.23;117.40;;;8.10;99.90;;;;;;5107801;28;20212;-83
2021/05/06 06:33:12;;;;;;;190.60;119.60;;;;;;;;;;5105296;28;20229;-82
2021/05/06 06:35:40;;;;;;;176.13;119.80;;;;;;;;;;5105590;28;20213;-81
2021/05/06 06:38:06;;;;;;;144.52;116.25;;;7.90;99.90;;;;;;5109770;28;20226;-81
2021/05/06 06:40:32;;;;;;;167.07;126.30;;;7.90;99.90;;;;;;5118744;28;20194;-81
2021/05/06 06:42:58;;;;;;;186.13;132.55;;;8.00;99.90;;;;;;5118102;28;20205;-81
2021/05/06 06:45:25;;;;;;;190.95;121.13;;;;;;;;;;5118212;28;20197;-81
2021/05/06 06:47:52;;;;;;;156.68;120.78;;;8.10;99.90;;;;;;5117922;28;20178;-81
2021/05/06 06:50:19;;;;;;;188.05;119.68;;;8.00;99.90;;;;;;5116701;28;20242;-81
2021/05/06 06:52:46;;;;;;;172.95;126.55;;;8.10;99.90;;;;;;5117319;28;20225;-81
2021/05/06 06:55:12;;;;;;;176.50;126.90;;;8.10;99.90;;;;;;5117050;28;20229;-81
2021/05/06 06:57:39;;;;;;;220.55;126.90;;;8.80;99.90;;;;;;5115467;28;20251;-82
2021/05/06 07:00:07;;;;;;;233.75;133.50;;;8.60;99.90;;;;;;5104060;28;20198;-82
2021/05/06 07:02:33;;;;;;;219.38;128.55;;;8.70;99.90;;;;;;5102883;28;20229;-82
2021/05/06 07:04:59;;;;;;;203.88;132.98;;;8.50;99.90;;;;;;5101816;28;20198;-82
2021/05/06 07:07:26;;;;;;;230.63;135.68;;;8.60;99.90;;;;;;5101081;28;20201;-83
2021/05/06 07:09:53;;;;;;;240.35;143.68;;;8.80;99.90;;;;;;5102230;28;20258;-83
2021/05/06 07:12:19;;;;;;;196.45;134.80;;;8.70;99.90;;;;;;5101468;28;20252;-82
2021/05/06 07:14:45;;;;;;;211.95;134.52;;;8.70;99.90;;;;;;5101811;28;20224;-82
2021/05/06 07:17:11;;;;;;;217.73;138.48;;;8.80;99.90;;;;;;5101118;28;20209;-82
2021/05/06 07:19:37;;;;;;;187.05;135.07;;;8.80;99.90;;;;;;5103441;28;20201;-82
2021/05/06 07:22:04;;;;;;;173.47;136.93;;;9.00;99.90;;;;;;5116682;28;20209;-81
2021/05/06 07:24:31;;;;;;;154.38;133.95;;;9.20;99.90;;;;;;5118341;28;20513;-81
2021/05/06 07:26:59;;;;;;;150.80;135.07;;;;;;;;;;5118450;28;20198;-81
2021/05/06 07:29:26;;;;;;;147.80;133.33;;;;;;;;;;5118489;28;20180;-82
2021/05/06 07:31:53;;;;;;;155.33;139.73;;;;;;;;;;5117669;28;20457;-81
2021/05/06 07:34:19;;;;;;;171.32;143.40;;;9.70;99.90;;;;;;5111408;28;20471;-82
2021/05/06 07:36:45;;;;;;;175.63;142.60;;;9.10;99.90;;;;;;5102165;28;20210;-81
2021/05/06 07:39:12;;;;;;;181.48;140.23;;;9.10;99.90;;;;;;5102290;28;20454;-82
2021/05/06 07:41:38;;;;;;;206.38;137.32;;;9.00;99.90;;;;;;5101987;28;20307;-82
2021/05/06 07:44:06;;;;;;;182.10;140.32;;;9.30;99.90;;;;;;5100695;28;20202;-82
2021/05/06 07:46:32;;;;;;;214.60;139.02;;;8.90;99.90;;;;;;5102442;28;20197;-82
2021/05/06 07:48:58;;;;;;;241.20;142.73;;;8.80;99.90;;;;;;5117076;28;20196;-81
2021/05/06 07:51:25;;;;;;;257.92;143.10;;;9.00;99.90;;;;;;5105025;28;20201;-82
2021/05/06 07:53:52;;;;;;;223.20;143.40;;;9.10;99.90;;;;;;5099064;28;20214;-82
2021/05/06 07:56:19;;;;;;;219.47;142.63;;;9.40;99.90;;;;;;5100174;28;20201;-82
2021/05/06 07:58:45;;;;;;;202.77;149.23;;;9.60;99.90;;;;;;5099669;28;20451;-82
2021/05/06 08:01:12;;;;;;;197.00;150.33;;;10.00;99.90;;;;;;5099542;28;20452;-81
2021/05/06 08:03:39;;;;;;;194.33;157.00;;;10.10;99.90;;;;;;5099973;28;20482;-82
2021/05/06 08:06:05;;;;;;;206.03;161.10;;;9.70;99.90;;;;;;5104510;28;20477;-82
2021/05/06 08:08:31;;;;;;;182.23;156.83;;;9.80;99.90;;;;;;5110548;28;20426;-82
2021/05/06 08:10:58;;;;;;;175.77;156.80;;;9.70;99.90;;;;;;5112064;28;20432;-83
2021/05/06 08:13:25;;;;;;;169.20;151.70;;;9.40;99.90;;;;;;5113941;28;20497;-82
2021/05/06 08:15:53;;;;;;;166.90;148.53;;;9.20;99.90;;;;;;5109513;28;20479;-82
2021/05/06 08:18:20;;;;;;;159.47;143.17;;;9.30;99.90;;;;;;5114254;28;20418;-82
2021/05/06 08:20:47;;;;;;;155.93;141.53;;;;;;;;;;5115100;28;20446;-82
2021/05/06 08:23:13;;;;;;;152.40;138.10;;;9.40;99.90;;;;;;5113446;28;20438;-82
2021/05/06 08:25:39;;;;;;;161.00;144.50;;;9.40;99.90;;;;;;5113302;28;20498;-82
2021/05/06 08:28:06;;;;;;;171.53;154.80;;;9.60;99.90;;;;;;5114592;28;20448;-82
2021/05/06 08:30:34;;;;;;;165.93;149.63;;;9.60;99.90;;;;;;5114993;28;20452;-82
2021/05/06 08:33:00;;;;;;;153.87;138.77;;;9.40;99.90;;;;;;5115659;28;20430;-82
2021/05/06 08:35:29;;;;;;;164.73;146.13;;;9.40;99.90;;;;;;5113963;28;20450;-84
2021/05/06 08:37:55;;;;;;;162.07;145.60;;;;;;;;;;5114309;28;20458;-84
2021/05/06 08:40:22;;;;;;;164.07;144.43;;;9.30;99.90;;;;;;5115091;28;20465;-83
2021/05/06 08:42:52;;;;;;;154.83;138.30;;;9.30;99.90;;;;;;5114868;28;20221;-83
2021/05/06 08:45:18;;;;;;;179.97;147.40;;;9.40;99.90;;;;;;5114144;28;20415;-83
2021/05/06 08:47:45;;;;;;;193.10;157.27;;;;;;;;;;5114722;28;20805;-82
2021/05/06 08:50:12;;;;;;;168.47;150.87;;;9.80;99.90;;;;;;5115905;28;20421;-83
2021/05/06 08:52:40;;;;;;;189.53;158.90;;;10.10;99.90;;;;;;5115586;28;20490;-83
2021/05/06 08:55:07;;;;;;;170.13;153.00;;;10.40;99.90;;;;;;5115215;28;20475;-83
2021/05/06 08:57:34;;;;;;;175.93;157.63;;;;;;;;;;5115743;28;20440;-82
2021/05/06 09:00:01;;;;;;;180.57;163.20;;;;;;;;;;5114283;28;20410;-82
2021/05/06 09:02:28;;;;;;;189.73;171.03;;;;;;;;;;5113754;28;20446;-83
2021/05/06 09:04:54;;;;;;;190.77;171.47;;;;;;;;;;5114474;28;20428;-84
2021/05/06 09:07:21;;;;;;;192.03;171.57;;;10.50;99.90;;;;;;5113853;28;20421;-83
2021/05/06 09:09:50;;;;;;;189.53;170.37;;;10.50;99.90;;;;;;5114503;28;20414;-82
2021/05/06 09:12:17;;;;;;;198.27;172.40;;;10.40;99.90;;;;;;5114780;28;20470;-83
2021/05/06 09:14:45;;;;;;;284.70;262.08;;;10.50;99.90;;;;;;5114629;28;20449;-83
2021/05/06 09:17:26;;;;;;;233.63;212.33;;;10.70;99.90;;;;;;5115392;28;20194;-83
2021/05/06 09:19:56;;;;;;;198.17;179.87;;;;;;;;;;5115778;28;20478;-83
2021/05/06 09:22:32;;;;;;;207.00;186.80;;;10.80;99.90;;;;;;5116558;28;20505;-83
2021/05/06 09:25:28;;;;;;;199.73;179.93;;;10.60;99.90;;;;;;5117008;28;20405;-83
2021/05/06 09:28:14;;;;;;;188.73;169.73;;;10.60;99.90;;;;;;5117524;28;20430;-83
2021/05/06 09:30:53;;;;;;;202.13;179.63;;;10.50;99.90;;;;;;5113213;28;20451;-83
2021/05/06 09:33:32;;;;;;;188.63;170.03;;;10.10;99.90;;;;;;5110978;28;20489;-83
2021/05/06 09:36:09;;;;;;;183.27;165.10;;;10.20;99.90;;;;;;5111449;28;20488;-83
2021/05/06 09:38:37;;;;;;;176.07;159.03;;;9.80;99.90;;;;;;5109773;28;20411;-83
2021/05/06 09:41:06;;;;;;;176.57;159.30;;;10.00;99.90;;;;;;5109884;28;20444;-83
2021/05/06 09:43:35;;;;;;;176.00;159.50;;;10.10;99.90;;;;;;5110631;28;20506;-83
2021/05/06 09:46:04;;;;;;;171.77;155.93;;;10.30;99.90;;;;;;5110677;28;20422;-83
2021/05/06 09:48:30;;;;;;;179.30;163.50;;;;;;;;;;5109864;28;20444;-83
2021/05/06 09:51:04;;;;;;;215.65;200.15;;;10.80;99.90;;;;;;5109238;28;20793;-83
2021/05/06 09:53:32;;;;;;;368.10;350.00;;;11.30;99.90;;;;;;5111142;28;20429;-83
2021/05/06 09:56:03;;;;;;;244.07;225.47;;;11.10;99.90;;;;;;5115156;28;20224;-83
2021/05/06 09:58:36;;;;;;;231.43;212.57;;;11.00;99.90;;;;;;5113693;28;20450;-83
2021/05/06 10:01:10;;;;;;;248.00;230.98;;;11.00;99.90;;;;;;5110938;28;20489;-83
2021/05/06 10:03:36;;;;;;;228.43;210.73;;;10.80;99.90;;;;;;5111836;28;20237;-82
2021/05/06 10:06:11;;;;;;;205.43;189.17;;;10.60;99.90;;;;;;5110253;28;20522;-83
2021/05/06 10:08:38;;;;;;;191.80;177.10;;;10.50;99.90;;;;;;5110903;28;20406;-83
2021/05/06 10:11:12;;;;;;;187.87;173.20;;;10.70;99.90;;;;;;5115102;28;20418;-83
2021/05/06 10:13:41;;;;;;;196.00;181.27;;;10.80;99.90;;;;;;5114588;28;20492;-82
2021/05/06 10:16:08;;;;;;;170.80;157.50;;;10.70;99.90;;;;;;5114123;28;20440;-83
2021/05/06 10:18:37;;;;;;;186.57;171.40;;;10.70;99.90;;;;;;5114302;28;20440;-83
2021/05/06 10:21:06;;;;;;;186.00;170.77;;;;;;;;;;5111611;28;20443;-83
2021/05/06 10:23:33;;;;;;;197.10;178.10;;;;;;;;;;5110577;28;20479;-83
2021/05/06 10:26:00;;;;;;;206.30;186.97;;;;;;;;;;5110962;28;20415;-83
2021/05/06 10:28:26;;;;;;;188.93;173.07;;;;;;;;;;5110108;28;20442;-83
2021/05/06 10:30:55;;;;;;;184.57;168.07;;;9.80;99.90;;;;;;5113469;28;20538;-83
2021/05/06 10:33:24;;;;;;;178.40;162.93;;;9.40;99.90;;;;;;5109857;28;20442;-83
2021/05/06 10:35:52;;;;;;;175.03;158.83;;;8.80;99.90;;;;;;5109230;28;20537;-83
2021/05/06 10:38:19;;;;;;;166.70;151.33;;;8.50;99.90;;;;;;5107514;28;20533;-83
2021/05/06 10:40:46;;;;;;;138.57;128.67;;;8.20;99.90;;;;;;5106634;28;20418;-83
2021/05/06 10:43:25;;;;;;;121.20;112.73;;;7.90;99.90;;;;;;5107005;28;20503;-82
2021/05/06 10:45:58;;;;;;;143.35;130.68;;;8.00;99.90;;;;;;5107156;28;20438;-83
2021/05/06 10:48:24;;;;;;;167.43;132.57;;;7.60;99.90;;;;;;5107300;28;20205;-84
2021/05/06 10:50:51;;;;;;;182.23;129.30;;;7.70;99.90;;;;;;5110725;28;20643;-83
2021/05/06 10:53:29;;;;;;;172.07;133.43;;;7.70;99.90;;;;;;5110557;28;20245;-83
2021/05/06 10:55:56;;;;;;;187.35;133.50;;;;;;;;;;5111962;28;20186;-81
2021/05/06 10:58:39;;;;;;;177.48;130.65;;;8.10;99.90;;;;;;5110801;28;20202;-83
2021/05/06 11:01:39;;;;;;;144.25;130.82;;;8.50;99.90;;;;;;5110629;28;20236;-83
2021/05/06 11:04:09;;;;;;;94.90;88.40;;;8.60;99.90;;;;;;5104610;28;20217;-83
2021/05/06 11:06:40;;;;;;;99.25;92.82;;;8.60;99.90;;;;;;5106331;28;20239;-82
2021/05/06 11:09:51;;;;;;;126.32;116.30;;;8.60;99.90;;;;;;5104122;28;20602;-82
2021/05/06 11:12:23;;;;;;;180.60;150.32;;;8.70;99.90;;;;;;5103508;28;20225;-82
2021/05/06 11:15:27;;;;;;;162.88;141.20;;;8.50;99.90;;;;;;5106212;28;20300;-82
2021/05/06 11:17:55;;;;;;;177.45;148.65;;;;;;;;;;5102033;28;20288;-81
2021/05/06 11:20:44;;;;;;;249.73;153.02;;;8.40;99.90;;;;;;5101322;28;20255;-81
2021/05/06 11:23:29;;;;;;;125.60;116.03;;;8.40;99.90;;;;;;5101027;28;20266;-82
2021/05/06 11:26:17;;;;;;;202.00;140.93;;;8.30;99.90;;;;;;5101231;28;20458;-83
2021/05/06 11:28:49;;;;;;;257.63;241.30;;;8.50;99.90;;;;;;5099786;28;20528;-83
2021/05/06 11:31:32;;;;;;;130.13;122.30;;;9.10;99.90;;;;;;5101293;28;20189;-83
2021/05/06 11:34:28;;;;;;;100.63;94.63;;;9.10;99.90;;;;;;5107392;28;20430;-83
2021/05/06 11:37:16;;;;;;;97.93;92.17;;;9.40;99.90;;;;;;5110393;28;20431;-82
2021/05/06 11:39:51;;;;;;;122.83;114.93;;;9.10;99.90;;;;;;5102692;28;20432;-82
2021/05/06 11:42:17;;;;;;;160.53;146.53;;;9.50;99.90;;;;;;5105742;28;20459;-82
2021/05/06 11:45:04;;;;;;;131.10;122.57;;;9.40;99.90;;;;;;5106251;28;20457;-83
2021/05/06 11:47:30;;;;;;;163.53;149.53;;;9.60;99.90;;;;;;5109125;28;20413;-83
2021/05/06 11:49:57;;;;;;;111.23;104.67;;;9.40;99.90;;;;;;5106113;28;20422;-83
2021/05/06 11:52:32;;;;;;;154.30;142.43;;;9.70;99.90;;;;;;5105219;28;21020;-83
2021/05/06 11:54:58;;;;;;;166.47;153.77;;;9.60;99.90;;;;;;5106065;28;20427;-83
2021/05/06 11:57:25;;;;;;;77.83;73.60;;;9.90;99.90;;;;;;5106059;28;20447;-83
2021/05/06 11:59:51;;;;;;;176.50;162.60;;;;;;;;;;5106089;28;20443;-82
2021/05/06 12:02:17;;;;;;;160.97;149.57;;;10.30;99.90;;;;;;5107153;28;20528;-83
2021/05/06 12:04:51;;;;;;;177.80;163.43;;;9.90;99.90;;;;;;5112368;28;20442;-82
2021/05/06 12:07:21;;;;;;;165.63;153.03;;;10.00;99.90;;;;;;5119073;28;20407;-82
2021/05/06 12:09:48;;;;;;;157.30;146.30;;;9.90;99.90;;;;;;5115500;28;20458;-83
2021/05/06 12:12:20;;;;;;;163.73;152.13;;;10.20;99.90;;;;;;5106340;28;20467;-82
2021/05/06 12:14:47;;;;;;;154.73;144.13;;;10.30;99.90;;;;;;5105616;28;20506;-82
2021/05/06 12:17:18;;;;;;;168.27;156.80;;;11.00;99.90;;;;;;5105682;28;20447;-82
2021/05/06 12:19:46;;;;;;;170.67;159.43;;;11.00;99.90;;;;;;5105079;28;20436;-82
2021/05/06 12:22:13;;;;;;;169.53;158.93;;;11.00;99.90;;;;;;5105553;28;20475;-83
2021/05/06 12:24:44;;;;;;;172.27;161.50;;;11.20;99.90;;;;;;5105387;28;20475;-82
2021/05/06 12:27:18;;;;;;;178.47;166.63;;;11.30;99.90;;;;;;5105251;28;20432;-82
2021/05/06 12:29:45;;;;;;;175.83;164.93;;;;;;;;;;5104975;28;20482;-82
2021/05/06 12:32:16;;;;;;;177.13;165.83;;;;;;;;;;5104355;28;20475;-82
2021/05/06 12:34:43;;;;;;;160.77;151.50;;;11.50;99.90;;;;;;5105165;28;20424;-82
2021/05/06 12:37:09;;;;;;;176.30;165.03;;;11.80;99.90;;;;;;5104961;28;20447;-83
2021/05/06 12:39:35;;;;;;;170.30;160.77;;;11.70;99.90;;;;;;5104499;28;20448;-83
2021/05/06 12:42:05;;;;;;;218.33;204.57;;;12.20;99.90;;;;;;5105930;28;20463;-83
2021/05/06 12:44:37;;;;;;;187.17;175.80;;;12.30;99.90;;;;;;5104810;28;20543;-83
2021/05/06 12:47:20;;;;;;;62.80;59.63;;;12.10;99.90;;;;;;5106125;28;20447;-82
2021/05/06 12:49:47;;;;;;;141.20;134.30;;;;;;;;;;5106984;28;20415;-83
2021/05/06 12:52:30;;;;;;;196.90;185.10;;;12.20;99.90;;;;;;5109557;28;20448;-83
2021/05/06 12:54:56;;;;;;;177.13;166.53;;;11.70;99.90;;;;;;5117756;28;20428;-82
2021/05/06 12:57:24;;;;;;;57.83;55.03;;;11.60;99.90;;;;;;5116775;28;20439;-82
2021/05/06 12:59:50;;;;;;;214.70;201.30;;;;;;;;;;5116643;28;20431;-82
2021/05/06 13:02:17;;;;;;;86.57;82.67;;;11.80;99.90;;;;;;5116049;28;20479;-82
2021/05/06 13:04:45;;;;;;;55.20;52.77;;;11.70;99.90;;;;;;5114328;28;20483;-82
2021/05/06 13:07:12;;;;;;;107.60;102.90;;;11.90;99.90;;;;;;5108409;28;20440;-82
2021/05/06 13:09:45;;;;;;;218.13;203.77;;;12.00;99.90;;;;;;5105785;28;20450;-83
2021/05/06 13:12:17;;;;;;;203.60;189.40;;;11.50;99.90;;;;;;5108022;28;20459;-83
2021/05/06 13:14:53;;;;;;;218.67;204.07;;;;;;;;;;5106677;28;20435;-82
2021/05/06 13:17:25;;;;;;;73.30;69.80;;;;;;;;;;5106246;28;20447;-83
2021/05/06 13:19:52;;;;;;;149.40;141.00;;;;;;;;;;5105635;28;20465;-83
2021/05/06 13:22:19;;;;;;;198.87;185.90;;;;;;;;;;5107695;28;20467;-81
2021/05/06 13:24:48;;;;;;;132.83;126.43;;;11.40;99.90;;;;;;5118311;28;20479;-82
2021/05/06 13:27:14;;;;;;;199.57;186.20;;;;;;;;;;5118579;28;20398;-82
2021/05/06 13:29:49;;;;;;;196.40;183.73;;;11.70;99.90;;;;;;5114310;28;20419;-82
2021/05/06 13:32:16;;;;;;;182.93;171.50;;;;;;;;;;5112510;28;20470;-83
2021/05/06 13:34:55;;;;;;;203.97;191.07;;;12.10;99.90;;;;;;5111512;28;20465;-82
2021/05/06 13:37:21;;;;;;;197.50;185.07;;;12.00;99.90;;;;;;5112430;28;20451;-81
2021/05/06 13:39:48;;;;;;;206.53;193.03;;;;;;;;;;5115874;28;20428;-82
2021/05/06 13:42:17;;;;;;;213.47;199.30;;;;;;;;;;5118950;28;20483;-82
2021/05/06 13:44:44;;;;;;;205.17;190.90;;;;;;;;;;5107605;28;20453;-83
2021/05/06 13:47:11;;;;;;;198.87;186.37;;;11.10;99.90;;;;;;5091693;28;20843;-82
2021/05/06 13:49:37;;;;;;;216.97;201.97;;;;;;;;;;5108447;28;20454;-82
2021/05/06 13:52:05;;;;;;;262.47;251.67;;;;;;;;;;5108153;28;20451;-81
2021/05/06 13:54:31;;;;;;;277.83;260.50;;;;;;;;;;5109423;28;20444;-82
2021/05/06 13:56:58;;;;;;;255.83;237.73;;;11.80;99.90;;;;;;5111566;28;20524;-81
2021/05/06 13:59:24;;;;;;;220.00;204.27;;;11.70;99.90;;;;;;5112212;28;20433;-82
2021/05/06 14:01:53;;;;;;;216.23;200.47;;;11.60;99.90;;;;;;5109291;28;20533;-83
2021/05/06 14:04:21;;;;;;;230.57;205.97;;;11.50;99.90;;;;;;5108816;28;20598;-82
2021/05/06 14:06:48;;;;;;;189.20;177.83;;;11.40;99.90;;;;;;5110409;28;20440;-83
2021/05/06 14:09:16;;;;;;;230.23;211.03;;;11.50;99.90;;;;;;5112999;28;20448;-82
2021/05/06 14:11:43;;;;;;;239.13;216.63;;;;;;;;;;5114046;28;20463;-82
2021/05/06 14:14:11;;;;;;;246.67;225.33;;;11.70;99.90;;;;;;5116473;28;20414;-82
2021/05/06 14:16:38;;;;;;;264.60;237.07;;;11.70;99.90;;;;;;5115059;28;20429;-82
2021/05/06 14:19:06;;;;;;;259.37;231.63;;;11.70;99.90;;;;;;5114447;28;20444;-82
2021/05/06 14:21:34;;;;;;;266.90;238.13;;;;;;;;;;5110805;28;20507;-85
2021/05/06 14:24:00;;;;;;;262.83;235.43;;;11.80;99.90;;;;;;5112983;28;20444;-84
2021/05/06 14:26:27;;;;;;;247.13;228.33;;;11.90;99.90;;;;;;5114799;28;20435;-82
2021/05/06 14:28:53;;;;;;;245.63;227.70;;;;;;;;;;5115398;28;20444;-84
2021/05/06 14:31:20;;;;;;;277.40;259.52;;;;;;;;;;5114995;28;20421;-82
2021/05/06 14:33:46;;;;;;;274.33;252.93;;;;;;;;;;5114202;28;20231;-85
2021/05/06 14:36:13;;;;;;;266.40;240.00;;;;;;;;;;5111909;28;20455;-83
2021/05/06 14:38:41;;;;;;;256.93;233.67;;;11.70;99.90;;;;;;5114141;28;20450;-83
2021/05/06 14:41:09;;;;;;;275.93;245.83;;;11.90;99.90;;;;;;5114571;28;20439;-85
2021/05/06 14:43:47;;;;;;;333.70;248.37;;;11.60;99.90;;;;;;5114359;28;20536;-83
2021/05/06 14:46:13;;;;;;;272.07;243.77;;;12.20;99.90;;;;;;5111551;28;20477;-83
2021/05/06 14:48:39;;;;;;;261.50;236.90;;;;;;;;;;5112280;28;20515;-83
2021/05/06 14:51:06;;;;;;;277.63;247.93;;;;;;;;;;5112200;28;20433;-82
2021/05/06 14:53:32;;;;;;;248.47;230.17;;;;;;;;;;5113867;28;20464;-82
2021/05/06 14:56:00;;;;;;;240.23;222.17;;;12.20;99.90;;;;;;5112414;28;20444;-83
2021/05/06 14:58:29;;;;;;;238.23;222.13;;;;;;;;;;5113090;28;20408;-81
2021/05/06 15:00:55;;;;;;;216.03;201.67;;;12.20;99.90;;;;;;5113963;28;20440;-82
2021/05/06 15:03:21;;;;;;;210.70;197.47;;;11.70;99.90;;;;;;5111669;28;20970;-82
2021/05/06 15:05:48;;;;;;;238.43;221.93;;;;;;;;;;5111039;28;20483;-83
2021/05/06 15:08:16;;;;;;;246.47;228.77;;;;;;;;;;5110005;28;20443;-83
2021/05/06 15:10:43;;;;;;;340.38;320.42;;;;;;;;;;5110378;28;20423;-83